Time;durP1;ratioP1;P1;durP2;ratioP2;P2;SDS_P1;SDS_P2;PMS_P1;PMS_P2;Temp;Humidity;BMP_temperature;BMP_pressure;BME280_temperature;BME280_humidity;BME280_pressure;Samples;Min_cycle;Max_cycle;Signal;HPM_P1;HPM_P2
2021/05/21 00:02:01;;;;;;;6.20;1.65;;;14.80;73.20;;;13.82;64.79;99852.88;5011257;28;20053;-91
2021/05/21 00:04:40;;;;;;;6.13;1.50;;;14.70;73.20;;;13.80;65.04;99855.00;5011207;28;20050;-90
2021/05/21 00:07:18;;;;;;;5.18;1.50;;;14.70;73.10;;;13.74;64.83;99837.56;5011253;28;20057;-91
2021/05/21 00:09:50;;;;;;;5.85;1.45;;;14.70;73.60;;;13.75;64.39;99832.97;5010984;28;20050;-90
2021/05/21 00:12:29;;;;;;;7.22;1.60;;;14.70;73.00;;;13.75;64.35;99835.69;4993416;28;20057;-91
2021/05/21 00:15:05;;;;;;;4.85;1.50;;;14.70;73.10;;;13.77;65.08;99822.63;4993458;28;20054;-90
2021/05/21 00:17:43;;;;;;;4.05;1.48;;;14.70;73.70;;;13.72;64.45;99817.00;5010918;28;20049;-91
2021/05/21 00:20:24;;;;;;;4.40;1.50;;;14.70;72.70;;;13.74;64.97;99810.22;5010701;28;20045;-91
2021/05/21 00:22:59;;;;;;;3.45;1.10;;;14.70;74.00;;;13.73;64.86;99805.84;4993233;28;20053;-90
2021/05/21 00:25:34;;;;;;;6.57;1.30;;;14.70;73.30;;;13.72;65.24;99795.13;5009563;28;20101;-90
2021/05/21 00:28:12;;;;;;;5.20;1.55;;;14.60;73.80;;;13.69;64.58;99797.25;5010759;28;20060;-90
2021/05/21 00:30:50;;;;;;;6.60;1.60;;;14.60;74.00;;;13.65;64.45;99785.06;5010690;28;20053;-91
2021/05/21 00:33:26;;;;;;;6.72;1.85;;;14.60;73.10;;;13.67;64.19;99782.13;4992850;28;20407;-90
2021/05/21 00:36:10;;;;;;;5.50;1.33;;;14.60;73.50;;;13.67;64.76;99777.47;5010621;28;20053;-90
2021/05/21 00:38:46;;;;;;;5.25;1.35;;;14.60;73.10;;;13.65;64.79;99774.13;5010298;28;20050;-91
2021/05/21 00:41:25;;;;;;;3.83;1.50;;;14.60;73.40;;;13.64;65.48;99777.91;4992605;28;20565;-90
2021/05/21 00:44:01;;;;;;;5.38;1.80;;;14.60;73.90;;;13.61;65.64;99767.44;5010571;28;20042;-90
2021/05/21 00:46:36;;;;;;;4.90;1.40;;;14.50;74.00;;;13.58;65.63;99772.53;5010465;28;20410;-89
2021/05/21 00:49:17;;;;;;;10.98;1.95;;;14.50;74.10;;;13.55;64.99;99760.09;4992593;28;20097;-90
2021/05/21 00:51:54;;;;;;;4.43;1.65;;;14.50;73.70;;;13.57;65.08;99760.72;5010387;28;20053;-92
2021/05/21 00:54:30;;;;;;;3.97;1.40;;;14.50;73.50;;;13.57;65.36;99752.53;4992734;28;20583;-90
2021/05/21 00:57:09;;;;;;;3.70;1.40;;;14.40;73.60;;;13.57;65.29;99748.97;5010272;28;20053;-91
2021/05/21 00:59:44;;;;;;;3.97;1.63;;;14.40;74.00;;;13.55;65.42;99751.06;4991955;28;20042;-91
2021/05/21 01:02:22;;;;;;;5.70;1.80;;;14.40;73.90;;;13.50;65.55;99735.34;4992355;28;20046;-91
2021/05/21 01:04:57;;;;;;;3.05;1.40;;;14.40;74.20;;;13.52;65.51;99735.13;5010095;28;20506;-90
2021/05/21 01:07:33;;;;;;;4.50;1.73;;;14.40;74.00;;;13.47;64.58;99722.13;4992394;28;20108;-90
2021/05/21 01:10:13;;;;;;;5.88;1.60;;;14.40;73.10;;;13.48;64.63;99719.19;4991893;28;20053;-90
2021/05/21 01:12:48;;;;;;;3.55;1.50;;;14.40;73.70;;;13.50;65.19;99718.97;5009956;28;20046;-90
2021/05/21 01:15:27;;;;;;;5.05;1.40;;;14.40;73.70;;;13.52;65.20;99725.03;5009866;28;20549;-90
2021/05/21 01:18:05;;;;;;;5.72;1.70;;;14.40;73.80;;;13.51;65.15;99717.88;5009996;28;20046;-90
2021/05/21 01:20:44;;;;;;;17.48;1.90;;;14.40;74.30;;;13.45;65.53;99713.31;5023551;23;20045;-80
2021/05/21 01:23:22;;;;;;;5.47;1.63;;;14.30;74.60;;;13.42;65.96;99714.59;5009909;28;20049;-80
2021/05/21 01:25:55;;;;;;;5.57;1.50;;;14.30;74.50;;;13.40;65.77;99705.81;5009851;28;20257;-80
2021/05/21 01:28:31;;;;;;;4.57;1.27;;;14.30;74.60;;;13.38;66.35;99701.59;5011507;28;20128;-80
2021/05/21 01:31:09;;;;;;;4.43;1.60;;;14.30;75.20;;;13.37;66.39;99697.22;5009424;28;20490;-80
2021/05/21 01:33:47;;;;;;;6.78;1.42;;;14.20;74.90;;;13.38;65.96;99690.66;5009697;28;20042;-80
2021/05/21 01:36:23;;;;;;;3.67;1.27;;;14.20;74.70;;;13.33;66.34;99690.47;5009568;28;20042;-80
2021/05/21 01:39:10;;;;;;;3.95;1.00;;;14.20;75.10;;;13.28;66.85;99685.66;5008050;28;20423;-80
2021/05/21 01:41:49;;;;;;;4.97;1.20;;;14.10;75.30;;;13.26;66.51;99676.88;5009299;28;20050;-80
2021/05/21 01:44:24;;;;;;;5.80;1.20;;;14.10;75.40;;;13.26;66.90;99674.13;5009494;28;20120;-80
2021/05/21 01:46:59;;;;;;;5.50;1.40;;;14.10;75.70;;;13.25;66.82;99673.31;5009401;28;20104;-80
2021/05/21 01:49:32;;;;;;;3.00;1.20;;;14.10;76.00;;;13.23;67.10;99666.38;5008984;28;20038;-79
2021/05/21 01:52:16;;;;;;;3.42;1.40;;;14.10;75.50;;;13.20;66.88;99662.19;5008138;28;20107;-80
2021/05/21 01:54:54;;;;;;;4.88;1.67;;;14.00;75.90;;;13.19;66.89;99654.22;5009362;28;20052;-81
2021/05/21 01:57:32;;;;;;;4.57;1.35;;;14.00;75.90;;;13.17;67.11;99656.34;5009380;28;20045;-79
2021/05/21 02:00:10;;;;;;;3.90;1.10;;;14.00;75.90;;;13.15;67.55;99659.28;5008859;28;20046;-80
2021/05/21 02:02:51;;;;;;;3.27;1.13;;;14.00;76.20;;;13.14;66.94;99652.16;5009803;28;20129;-80
2021/05/21 02:05:26;;;;;;;4.15;1.00;;;14.00;76.00;;;13.13;66.90;99650.47;5009237;28;20041;-80
2021/05/21 02:08:05;;;;;;;2.85;1.05;;;14.00;75.80;;;13.13;67.13;99644.19;5009285;28;20046;-80
2021/05/21 02:10:43;;;;;;;3.97;1.00;;;13.90;76.10;;;13.12;67.13;99635.16;5008710;28;20505;-80
2021/05/21 02:13:18;;;;;;;3.67;0.95;;;13.90;76.00;;;13.10;67.66;99637.28;5009024;28;20061;-80
2021/05/21 02:15:56;;;;;;;3.30;1.20;;;13.90;76.70;;;13.10;67.21;99623.63;5009021;28;20046;-80
2021/05/21 02:18:34;;;;;;;3.42;1.05;;;13.90;76.40;;;13.11;67.58;99630.75;5008794;28;20042;-80
2021/05/21 02:21:14;;;;;;;3.90;1.30;;;13.90;76.30;;;13.12;67.37;99626.97;5008601;28;20383;-80
2021/05/21 02:23:55;;;;;;;4.90;1.30;;;13.90;76.40;;;13.12;67.32;99621.50;5008958;28;20057;-80
2021/05/21 02:26:33;;;;;;;3.20;1.20;;;13.90;76.50;;;13.08;67.60;99625.75;5008930;28;20107;-79
2021/05/21 02:29:11;;;;;;;4.80;1.13;;;13.90;76.80;;;13.06;68.12;99611.44;5008825;28;20077;-80
2021/05/21 02:31:49;;;;;;;4.05;1.20;;;13.90;77.00;;;13.08;68.01;99601.16;5008652;28;20053;-80
2021/05/21 02:34:25;;;;;;;4.03;0.95;;;13.90;76.70;;;13.07;67.69;99599.47;5008947;28;20046;-79
2021/05/21 02:37:02;;;;;;;2.15;0.90;;;13.90;76.90;;;13.09;67.47;99594.63;5009065;28;20054;-80
2021/05/21 02:39:39;;;;;;;5.00;0.93;;;13.90;76.60;;;13.10;67.42;99599.03;5008760;28;20078;-80
2021/05/21 02:42:17;;;;;;;3.50;1.00;;;13.90;76.50;;;13.09;67.45;99595.44;4995538;28;20696;-80
2021/05/21 02:44:55;;;;;;;3.13;1.10;;;13.90;76.90;;;13.04;67.66;99588.97;5012641;28;20101;-80
2021/05/21 02:47:30;;;;;;;4.18;1.00;;;13.90;77.00;;;13.04;67.51;99587.09;5012652;28;20049;-79
2021/05/21 02:50:10;;;;;;;4.38;1.08;;;13.90;76.90;;;13.04;67.60;99586.25;5012058;28;20135;-79
2021/05/21 02:52:45;;;;;;;2.42;1.10;;;13.90;76.80;;;13.07;67.49;99583.09;5012583;28;20356;-80
2021/05/21 02:55:24;;;;;;;4.22;1.30;;;13.90;76.80;;;13.03;67.55;99579.97;5012404;28;20424;-80
2021/05/21 02:58:03;;;;;;;4.88;1.42;;;13.90;77.10;;;13.02;67.61;99588.38;5012346;28;20054;-80
2021/05/21 03:00:41;;;;;;;4.05;1.30;;;13.80;76.80;;;12.99;67.70;99588.84;5011840;28;20046;-80
2021/05/21 03:03:19;;;;;;;3.17;1.10;;;13.80;76.90;;;12.95;67.35;99582.16;5012342;28;20042;-80
2021/05/21 03:05:57;;;;;;;4.50;1.10;;;13.80;76.50;;;12.97;67.62;99586.31;5012280;28;20395;-80
2021/05/21 03:08:34;;;;;;;3.88;1.20;;;13.80;76.50;;;13.01;68.03;99581.25;5012210;28;20489;-80
2021/05/21 03:11:18;;;;;;;5.60;1.00;;;13.80;76.90;;;13.04;67.81;99572.59;5011900;28;20050;-79
2021/05/21 03:13:56;;;;;;;3.17;1.10;;;13.90;77.00;;;13.05;67.71;99568.81;5012224;28;20042;-80
2021/05/21 03:16:33;;;;;;;6.72;1.08;;;13.90;77.10;;;13.04;68.16;99564.41;5012242;28;20120;-79
2021/05/21 03:19:09;;;;;;;5.53;1.02;;;13.80;77.20;;;13.01;67.96;99553.94;5011830;28;20399;-80
2021/05/21 03:21:47;;;;;;;4.20;1.10;;;13.80;77.10;;;13.01;67.75;99553.94;5011731;28;20041;-80
2021/05/21 03:24:23;;;;;;;4.82;1.10;;;13.80;77.30;;;13.02;67.72;99551.00;5011857;28;20070;-80
2021/05/21 03:27:02;;;;;;;5.20;1.02;;;13.80;76.90;;;13.06;67.62;99548.63;5011932;28;20057;-80
2021/05/21 03:29:40;;;;;;;6.15;1.25;;;13.80;76.80;;;13.06;67.88;99537.69;5011446;28;20112;-80
2021/05/21 03:32:16;;;;;;;3.40;1.30;;;13.80;76.70;;;13.05;67.70;99538.78;5011878;28;20103;-80
2021/05/21 03:34:53;;;;;;;4.80;1.10;;;13.80;76.80;;;13.03;67.21;99525.34;5011464;28;20776;-80
2021/05/21 03:37:31;;;;;;;3.60;1.17;;;13.80;76.60;;;13.04;67.29;99537.94;5011722;28;20060;-80
2021/05/21 03:40:07;;;;;;;4.78;1.20;;;13.80;76.80;;;13.04;67.64;99537.09;5011190;28;20053;-79
2021/05/21 03:42:49;;;;;;;4.35;1.10;;;13.80;77.00;;;13.02;67.59;99539.22;5010325;28;20537;-80
2021/05/21 03:45:27;;;;;;;4.20;1.00;;;13.80;77.00;;;12.99;67.83;99539.69;5011657;28;20050;-79
2021/05/21 03:48:05;;;;;;;3.90;1.00;;;13.80;77.00;;;12.97;68.43;99539.06;5011663;28;20065;-80
2021/05/21 03:50:43;;;;;;;4.53;0.98;;;13.80;77.00;;;12.95;67.99;99535.72;5010713;28;20042;-80
2021/05/21 03:53:21;;;;;;;6.50;1.42;;;13.80;77.00;;;12.95;68.13;99538.47;5010175;28;20084;-79
2021/05/21 03:56:00;;;;;;;3.25;1.00;;;13.80;76.70;;;12.98;68.28;99543.44;5010072;28;20057;-80
2021/05/21 03:58:40;;;;;;;6.15;1.20;;;13.80;77.10;;;12.99;68.04;99534.22;5011255;28;20046;-80
2021/05/21 04:01:15;;;;;;;2.85;1.10;;;13.80;77.20;;;13.02;67.67;99533.75;5010907;28;20080;-80
2021/05/21 04:03:50;;;;;;;6.00;1.30;;;13.90;77.20;;;13.05;67.30;99522.38;5009860;28;20057;-80
2021/05/21 04:06:28;;;;;;;4.20;1.20;;;13.90;76.70;;;13.02;67.56;99522.81;5011193;28;20057;-79
2021/05/21 04:09:08;;;;;;;6.70;1.10;;;13.90;76.40;;;13.06;67.74;99526.75;5011157;28;20042;-79
2021/05/21 04:11:46;;;;;;;3.17;1.10;;;13.90;76.70;;;13.08;68.16;99517.31;5010946;28;20050;-80
2021/05/21 04:14:25;;;;;;;3.15;0.98;;;14.00;76.80;;;13.12;68.50;99517.69;5011003;28;20046;-80
2021/05/21 04:17:03;;;;;;;4.60;1.30;;;14.00;77.30;;;13.17;68.48;99515.09;5011038;28;20053;-79
2021/05/21 04:19:41;;;;;;;6.28;1.15;;;14.00;77.40;;;13.18;68.17;99511.31;5010451;28;20251;-79
2021/05/21 04:22:14;;;;;;;3.75;1.58;;;14.00;76.90;;;13.22;68.19;99511.69;5010627;28;20042;-78
2021/05/21 04:24:50;;;;;;;5.78;1.15;;;14.10;76.70;;;13.22;67.50;99512.53;5010862;28;20804;-78
2021/05/21 04:27:25;;;;;;;3.53;1.20;;;14.10;76.70;;;13.27;68.34;99515.44;5010839;28;20046;-79
2021/05/21 04:30:11;;;;;;;6.78;1.38;;;14.10;76.80;;;13.26;68.35;99508.28;5010402;28;20089;-79
2021/05/21 04:32:46;;;;;;;5.68;1.45;;;14.10;77.20;;;13.29;68.53;99507.00;5010777;28;20080;-79
2021/05/21 04:35:26;;;;;;;2.50;1.10;;;14.20;77.00;;;13.25;68.69;99512.09;5010555;28;20045;-79
2021/05/21 04:38:02;;;;;;;4.70;1.10;;;14.20;77.40;;;13.28;68.36;99511.63;5009178;28;20406;-79
2021/05/21 04:40:42;;;;;;;5.90;1.55;;;14.20;77.20;;;13.34;68.03;99504.44;5010036;28;20574;-79
2021/05/21 04:43:14;;;;;;;4.45;1.27;;;14.20;76.90;;;13.40;68.59;99502.69;5010503;28;20054;-78
2021/05/21 04:45:55;;;;;;;7.10;1.33;;;14.30;76.90;;;13.41;67.97;99501.66;5010490;28;20073;-78
2021/05/21 04:48:25;;;;;;;6.63;1.20;;;14.40;76.40;;;13.44;68.42;99499.28;5010368;28;20057;-78
2021/05/21 04:51:03;;;;;;;4.40;1.20;;;14.40;76.60;;;13.50;68.26;99497.53;5009959;28;20042;-78
2021/05/21 04:53:40;;;;;;;3.28;1.10;;;14.40;76.40;;;13.50;68.31;99492.06;5010323;28;20044;-78
2021/05/21 04:56:16;;;;;;;3.83;1.00;;;14.50;76.70;;;13.52;68.88;99497.28;5008580;28;20049;-77
2021/05/21 04:58:54;;;;;;;7.03;1.30;;;14.50;77.00;;;13.50;69.00;99492.06;5010021;28;20045;-77
2021/05/21 05:01:33;;;;;;;4.35;1.20;;;14.50;77.20;;;13.50;68.26;99492.06;5009937;28;20573;-77
2021/05/21 05:04:12;;;;;;;5.00;1.27;;;14.50;76.50;;;13.50;67.93;99489.34;5009323;28;20050;-77
2021/05/21 05:06:48;;;;;;;8.18;1.48;;;14.50;76.60;;;13.53;68.51;99491.59;5010218;28;20053;-78
2021/05/21 05:09:27;;;;;;;3.53;1.02;;;14.50;76.50;;;13.52;68.82;99487.22;5009627;28;20042;-78
2021/05/21 05:12:04;;;;;;;5.38;1.20;;;14.50;76.70;;;13.53;68.39;99488.88;5009791;28;20050;-78
2021/05/21 05:14:39;;;;;;;4.13;1.15;;;14.50;76.60;;;13.55;68.65;99481.28;5009871;28;20470;-79
2021/05/21 05:17:19;;;;;;;4.47;1.20;;;14.60;76.40;;;13.56;69.62;99472.03;4997848;28;20037;-79
2021/05/21 05:19:54;;;;;;;4.10;1.35;;;14.60;77.30;;;13.58;69.34;99469.88;5008985;28;20434;-78
2021/05/21 05:22:30;;;;;;;2.88;1.08;;;14.60;77.30;;;13.58;68.87;99469.88;5009879;28;20128;-79
2021/05/21 05:25:10;;;;;;;3.33;1.23;;;14.60;76.70;;;13.59;68.61;99467.97;5009719;28;20539;-79
2021/05/21 05:27:53;;;;;;;7.25;1.10;;;14.60;76.70;;;13.63;68.88;99463.72;5023084;28;20045;-79
2021/05/21 05:30:28;;;;;;;4.72;1.40;;;14.60;76.80;;;13.62;68.70;99468.34;5021216;28;20049;-79
2021/05/21 05:33:05;;;;;;;3.92;1.10;;;14.60;76.20;;;13.60;68.68;99469.66;5008119;28;20426;-81
2021/05/21 05:35:41;;;;;;;4.03;1.20;;;14.70;76.00;;;13.63;68.39;99470.03;5009733;28;20056;-79
2021/05/21 05:38:16;;;;;;;5.03;1.25;;;14.70;76.10;;;13.61;67.94;99461.25;5009631;28;20100;-80
2021/05/21 05:40:54;;;;;;;6.75;1.35;;;14.70;75.70;;;13.61;67.61;99463.97;5008763;28;20038;-80
2021/05/21 05:43:32;;;;;;;3.78;1.10;;;14.70;75.20;;;13.63;67.45;99467.31;5008214;28;20054;-79
2021/05/21 05:46:10;;;;;;;3.83;1.30;;;14.80;75.50;;;13.64;68.29;99460.75;5009430;28;20125;-79
2021/05/21 05:48:50;;;;;;;5.43;1.13;;;14.80;75.90;;;13.66;68.57;99453.16;5009176;28;20046;-79
2021/05/21 05:51:25;;;;;;;6.53;1.33;;;14.80;76.00;;;13.66;68.83;99453.16;5007617;28;20502;-80
2021/05/21 05:54:02;;;;;;;5.47;1.08;;;14.80;76.20;;;13.69;68.80;99452.69;5009303;28;20046;-79
2021/05/21 05:56:35;;;;;;;5.10;1.42;;;14.80;76.20;;;13.71;68.73;99443.41;5009365;28;20049;-79
2021/05/21 05:59:13;;;;;;;4.88;1.40;;;14.80;76.10;;;13.70;68.48;99448.06;5009127;28;20096;-79
2021/05/21 06:01:51;;;;;;;4.43;1.20;;;14.80;75.90;;;13.73;68.57;99450.34;5008963;28;20054;-80
2021/05/21 06:04:27;;;;;;;3.42;1.33;;;14.90;76.00;;;13.74;68.48;99445.69;5009102;28;20096;-79
2021/05/21 06:07:05;;;;;;;2.97;1.13;;;14.90;76.00;;;13.73;68.19;99441.28;5007859;28;20084;-78
2021/05/21 06:09:43;;;;;;;4.90;1.25;;;14.90;75.70;;;13.69;67.59;99439.03;5008993;28;20038;-79
2021/05/21 06:12:16;;;;;;;3.78;1.52;;;14.90;74.60;;;13.76;67.88;99440.84;5009231;28;20050;-79
2021/05/21 06:14:48;;;;;;;4.65;1.17;;;15.00;75.10;;;13.80;68.06;99436.56;5009107;28;20054;-79
2021/05/21 06:17:24;;;;;;;7.60;1.30;;;15.10;75.00;;;13.84;67.74;99440.50;5008251;28;20046;-79
2021/05/21 06:20:09;;;;;;;5.88;1.50;;;15.10;74.80;;;13.85;68.14;99439.44;5008547;28;20042;-79
2021/05/21 06:22:47;;;;;;;3.97;1.40;;;15.10;74.90;;;13.88;67.92;99430.78;5008948;28;20049;-79
2021/05/21 06:25:28;;;;;;;5.68;1.33;;;15.20;74.90;;;13.84;67.67;99435.88;5008921;28;20084;-79
2021/05/21 06:28:01;;;;;;;3.45;1.35;;;15.20;74.30;;;13.87;68.34;99431.84;5009007;28;20425;-78
2021/05/21 06:30:39;;;;;;;3.35;1.27;;;15.20;74.90;;;13.89;67.73;99432.44;5008548;28;20403;-79
2021/05/21 06:33:15;;;;;;;8.85;1.60;;;15.20;74.60;;;13.89;67.82;99424.22;5008882;28;20073;-79
2021/05/21 06:35:55;;;;;;;4.97;1.70;;;15.20;74.30;;;13.91;68.22;99430.31;4990798;28;20730;-78
2021/05/21 06:38:32;;;;;;;4.13;1.40;;;15.30;74.90;;;13.97;68.01;99432.09;5008732;28;20042;-78
2021/05/21 06:41:11;;;;;;;6.18;1.90;;;15.30;75.00;;;14.01;68.14;99422.38;5008517;28;20046;-79
2021/05/21 06:43:49;;;;;;;9.45;1.60;;;15.40;74.60;;;14.05;67.41;99417.25;5008876;28;20060;-79
2021/05/21 06:46:22;;;;;;;6.35;1.45;;;15.40;73.70;;;14.12;67.71;99419.88;5008990;28;20049;-79
2021/05/21 06:49:00;;;;;;;4.10;1.33;;;15.50;74.40;;;14.18;67.70;99418.94;5008767;28;20405;-79
2021/05/21 06:51:39;;;;;;;8.35;1.60;;;15.60;74.00;;;14.17;67.73;99415.38;5007179;28;20103;-79
2021/05/21 06:54:18;;;;;;;7.63;1.48;;;15.60;73.70;;;14.18;66.80;99416.22;5008750;28;20042;-79
2021/05/21 06:56:56;;;;;;;9.85;1.73;;;15.60;73.70;;;14.18;67.09;99416.22;5008962;28;20073;-79
2021/05/21 06:59:35;;;;;;;7.07;1.80;;;15.60;73.60;;;14.17;67.97;99422.75;5008493;28;20046;-79
2021/05/21 07:02:10;;;;;;;6.43;1.60;;;15.60;73.90;;;14.15;67.13;99422.16;5008748;28;20042;-78
2021/05/21 07:04:46;;;;;;;7.53;1.45;;;15.60;73.10;;;14.16;67.38;99415.63;5008810;28;20045;-79
2021/05/21 07:07:16;;;;;;;5.38;1.98;;;15.60;73.70;;;14.16;66.88;99421.09;5008792;28;20050;-79
2021/05/21 07:09:51;;;;;;;6.70;1.55;;;15.60;73.50;;;14.17;67.18;99420.84;5008391;28;20049;-78
2021/05/21 07:12:29;;;;;;;5.72;1.85;;;15.50;74.00;;;14.15;66.50;99406.56;5008641;28;20050;-79
2021/05/21 07:15:05;;;;;;;6.20;1.70;;;15.50;72.80;;;14.15;67.23;99423.00;5008702;28;20057;-79
2021/05/21 07:17:40;;;;;;;6.03;1.75;;;15.50;73.70;;;14.22;69.05;99411.94;5008168;28;20038;-79
2021/05/21 07:20:19;;;;;;;8.10;1.85;;;15.60;74.70;;;14.31;67.84;99421.47;5032343;23;20049;-84
2021/05/21 07:23:03;;;;;;;13.48;2.00;;;15.70;73.60;;;14.33;67.75;99422.06;5028404;28;20107;-84
2021/05/21 07:25:39;;;;;;;9.45;1.45;;;15.70;73.50;;;14.32;67.08;99431.34;5028689;28;20045;-85
2021/05/21 07:28:16;;;;;;;10.10;1.80;;;15.80;73.50;;;14.28;66.59;99421.94;5030940;28;20046;-84
2021/05/21 07:30:55;;;;;;;9.63;2.00;;;15.70;72.70;;;14.27;66.42;99410.16;5029053;28;20060;-85
2021/05/21 07:33:35;;;;;;;7.97;1.77;;;15.70;72.70;;;14.22;65.00;99409.19;5031887;28;20045;-83
2021/05/21 07:36:11;;;;;;;9.80;2.00;;;15.70;71.90;;;14.21;64.97;99402.06;5031770;28;20228;-84
2021/05/21 07:38:49;;;;;;;10.75;2.47;;;15.60;71.60;;;14.15;65.06;99412.06;5031852;28;20284;-83
2021/05/21 07:41:30;;;;;;;9.45;2.05;;;15.60;70.90;;;14.22;65.98;99414.66;5031022;28;20048;-84
2021/05/21 07:44:07;;;;;;;7.18;1.73;;;15.70;71.60;;;14.29;66.24;99404.44;5031452;28;20041;-83
2021/05/21 07:46:42;;;;;;;10.52;2.03;;;15.80;72.10;;;14.33;65.38;99411.09;5031641;28;20081;-83
2021/05/21 07:49:22;;;;;;;8.75;2.45;;;15.80;71.50;;;14.36;66.11;99407.09;5031535;28;20041;-84
2021/05/21 07:52:00;;;;;;;5.95;1.75;;;15.80;72.40;;;14.32;65.41;99417.66;5031428;28;20053;-84
2021/05/21 07:54:37;;;;;;;8.35;1.95;;;15.80;71.40;;;14.32;65.61;99416.81;5029466;28;20053;-86
2021/05/21 07:57:12;;;;;;;11.43;2.30;;;15.70;72.10;;;14.24;64.71;99420.72;5031701;28;20049;-87
2021/05/21 07:59:50;;;;;;;10.95;2.10;;;15.70;70.90;;;14.27;65.21;99414.78;5027768;28;20037;-86
2021/05/21 08:02:28;;;;;;;8.93;2.63;;;15.70;71.90;;;14.31;66.12;99410.50;5026772;28;20045;-88
2021/05/21 08:05:04;;;;;;;13.00;2.55;;;15.70;71.90;;;14.40;63.94;99420.03;5031185;28;20045;-86
2021/05/21 08:07:42;;;;;;;13.18;1.88;;;15.80;70.00;;;14.51;64.50;99406.59;5028400;28;20528;-86
2021/05/21 08:10:21;;;;;;;10.38;1.98;;;15.90;69.80;;;14.62;63.63;99400.31;5027427;28;20489;-87
2021/05/21 08:13:00;;;;;;;7.15;1.65;;;16.00;70.10;;;14.72;63.78;99389.63;5031187;28;20057;-85
2021/05/21 08:15:40;;;;;;;12.43;2.33;;;16.10;69.50;;;14.72;62.04;99411.53;5030925;28;20064;-86
2021/05/21 08:18:19;;;;;;;9.93;2.13;;;16.10;68.20;;;14.64;60.63;99398.16;5031095;28;20053;-82
2021/05/21 08:20:57;;;;;;;11.70;1.90;;;16.10;67.20;;;14.70;63.65;99408.19;5028210;28;20048;-84
2021/05/21 08:23:37;;;;;;;9.93;2.22;;;16.10;69.00;;;14.76;62.06;99406.41;5030203;28;20045;-87
2021/05/21 08:26:13;;;;;;;12.57;2.50;;;16.20;67.70;;;14.78;59.94;99396.03;5030878;28;20084;-85
2021/05/21 08:28:52;;;;;;;8.95;2.53;;;16.20;66.60;;;14.71;60.62;99409.00;5030605;28;20045;-88
2021/05/21 08:31:27;;;;;;;16.80;2.38;;;16.20;66.60;;;14.72;61.32;99395.09;5029336;28;20041;-84
2021/05/21 08:34:05;;;;;;;11.63;2.20;;;16.20;66.70;;;14.77;61.51;99397.91;5030919;28;20045;-94
2021/05/21 08:36:38;;;;;;;13.68;2.22;;;16.20;66.60;;;14.93;60.34;99384.59;5029319;28;20045;-82
2021/05/21 08:39:13;;;;;;;9.75;1.95;;;16.30;66.40;;;15.06;59.03;99384.31;5030630;28;20041;-86
2021/05/21 08:41:53;;;;;;;9.68;2.47;;;16.40;64.40;;;15.17;60.69;99379.88;5028575;28;20045;-86
2021/05/21 08:44:33;;;;;;;9.98;2.25;;;16.60;66.90;;;15.20;60.42;99379.41;5030410;28;20498;-86
2021/05/21 08:47:05;;;;;;;10.98;1.90;;;16.60;66.50;;;15.17;59.75;99372.50;5030232;28;20052;-85
2021/05/21 08:49:38;;;;;;;8.80;2.03;;;16.70;64.70;;;15.29;58.33;99377.09;5029659;28;20068;-84
2021/05/21 08:52:19;;;;;;;11.30;3.00;;;16.70;64.20;;;15.36;57.55;99377.78;5030430;28;20042;-83
2021/05/21 08:54:54;;;;;;;12.18;2.10;;;16.80;63.50;;;15.48;57.23;99380.47;5030193;28;20090;-83
2021/05/21 08:57:35;;;;;;;11.35;1.98;;;16.80;61.90;;;15.57;58.42;99376.25;5030544;28;20041;-85
2021/05/21 09:00:15;;;;;;;14.85;1.95;;;17.00;62.90;;;15.50;53.73;99379.16;5029234;28;20490;-85
2021/05/21 09:02:50;;;;;;;8.68;1.77;;;17.00;59.50;;;15.52;55.92;99382.50;5029939;28;20045;-84
2021/05/21 09:05:29;;;;;;;15.32;2.65;;;17.00;60.40;;;15.60;58.65;99384.84;5029893;28;20045;-84
2021/05/21 09:08:07;;;;;;;12.85;2.38;;;17.10;62.40;;;15.61;55.82;99391.13;5025097;28;20033;-84
2021/05/21 09:10:47;;;;;;;12.93;2.10;;;17.10;59.70;;;15.51;53.26;99402.75;5019207;28;20432;-84
2021/05/21 09:13:36;;;;;;;12.20;2.53;;;17.10;59.10;;;15.41;53.35;99408.88;5020089;28;20048;-85
2021/05/21 09:16:24;;;;;;;9.20;2.05;;;17.00;58.80;;;15.40;51.88;99409.09;5027981;28;20043;-85
2021/05/21 09:19:21;;;;;;;7.40;1.80;;;17.00;57.10;;;15.39;51.72;99410.19;5026498;28;20038;-86
2021/05/21 09:22:07;;;;;;;12.38;2.47;;;17.00;58.00;;;15.31;52.76;99405.94;5027981;28;20099;-85
2021/05/21 09:24:48;;;;;;;13.85;2.70;;;16.90;57.40;;;15.43;52.76;99400.41;5017057;28;20157;-85
2021/05/21 09:27:28;;;;;;;16.65;2.72;;;16.90;57.90;;;15.52;52.08;99420.06;5010131;28;20085;-84
2021/05/21 09:30:10;;;;;;;11.07;1.98;;;17.00;56.70;;;15.60;54.71;99400.47;5013339;28;20033;-86
2021/05/21 09:32:45;;;;;;;11.38;2.15;;;17.10;59.10;;;15.68;52.89;99412.94;5026884;28;20517;-84
2021/05/21 09:35:22;;;;;;;10.30;2.28;;;17.10;57.60;;;15.73;52.69;99404.81;5023845;28;20120;-77
2021/05/21 09:38:01;;;;;;;12.88;2.10;;;17.20;57.10;;;15.77;52.90;99400.53;5025301;28;20531;-79
2021/05/21 09:40:37;;;;;;;10.30;2.35;;;17.20;59.30;;;15.80;53.42;99402.78;5007794;28;20041;-83
2021/05/21 09:43:15;;;;;;;13.48;2.53;;;17.20;58.20;;;15.84;53.02;99395.75;5009679;28;20049;-83
2021/05/21 09:45:54;;;;;;;14.43;2.20;;;17.30;56.30;;;15.92;54.28;99398.06;5008205;28;20078;-83
2021/05/21 09:48:35;;;;;;;7.75;1.90;;;17.40;57.80;;;16.02;50.87;99390.00;5009214;28;20108;-83
2021/05/21 09:51:12;;;;;;;13.40;2.20;;;17.40;56.30;;;15.98;50.48;99374.28;5017959;28;20041;-83
2021/05/21 09:53:46;;;;;;;11.10;1.70;;;17.50;56.00;;;15.88;49.95;99399.66;5028177;28;20080;-83
2021/05/21 09:56:26;;;;;;;7.72;2.20;;;17.40;55.20;;;15.86;49.36;99398.22;5029319;28;20136;-84
2021/05/21 09:59:06;;;;;;;9.15;1.80;;;17.40;54.60;;;15.92;49.54;99392.59;5029151;28;20449;-84
2021/05/21 10:01:42;;;;;;;8.05;1.80;;;17.40;54.70;;;15.87;49.14;99397.97;5028378;28;20065;-83
2021/05/21 10:04:15;;;;;;;10.65;2.35;;;17.40;54.20;;;15.79;49.77;99401.94;5029245;28;20053;-83
2021/05/21 10:06:52;;;;;;;9.02;1.80;;;17.40;54.20;;;15.78;49.24;99416.75;5029271;28;20049;-83
2021/05/21 10:09:25;;;;;;;12.57;2.45;;;17.30;53.80;;;15.75;49.01;99403.53;5028957;28;20052;-83
2021/05/21 10:12:00;;;;;;;10.00;1.95;;;17.40;53.60;;;15.71;50.71;99402.31;5028423;28;20061;-84
2021/05/21 10:14:32;;;;;;;12.20;1.95;;;17.30;54.40;;;15.76;50.51;99401.59;5029175;28;20053;-83
2021/05/21 10:17:14;;;;;;;15.88;2.67;;;17.30;55.30;;;15.79;50.71;99403.88;5029172;28;20045;-84
2021/05/21 10:19:54;;;;;;;12.38;2.15;;;17.30;54.90;;;15.91;52.86;99390.06;5028151;28;20048;-84
2021/05/21 10:22:36;;;;;;;11.05;2.53;;;17.40;57.10;;;16.02;51.87;99397.41;5028949;28;20065;-83
2021/05/21 10:25:21;;;;;;;13.15;2.00;;;17.50;56.40;;;15.92;48.28;99406.31;5029219;28;20749;-85
2021/05/21 10:28:06;;;;;;;13.18;2.30;;;17.50;53.50;;;15.79;48.69;99396.47;5029495;28;20041;-83
2021/05/21 10:30:44;;;;;;;10.73;2.40;;;17.40;53.30;;;15.74;49.49;99403.75;5028080;28;20128;-83
2021/05/21 10:33:28;;;;;;;12.82;2.63;;;17.40;54.30;;;15.80;52.85;99405.50;5028990;28;20647;-83
2021/05/21 10:36:38;;;;;;;11.00;2.35;;;17.40;56.40;;;15.84;52.01;99406.72;5028717;28;20059;-83
2021/05/21 10:39:35;;;;;;;11.15;2.10;;;17.40;55.90;;;15.80;50.01;99402.78;5028313;28;20080;-84
2021/05/21 10:42:29;;;;;;;10.63;1.95;;;17.40;55.40;;;15.85;52.04;99407.53;5028675;28;20100;-83
2021/05/21 10:45:18;;;;;;;11.73;2.47;;;17.40;56.10;;;15.98;52.53;99394.31;5027169;28;20046;-83
2021/05/21 10:48:04;;;;;;;12.32;2.33;;;17.50;56.70;;;16.05;53.03;99393.31;5028673;28;20052;-83
2021/05/21 10:50:44;;;;;;;12.68;2.58;;;17.60;57.00;;;16.08;50.00;99381.88;5026260;28;20417;-83
2021/05/21 10:53:24;;;;;;;7.90;2.00;;;17.60;55.00;;;16.09;51.40;99380.75;5028728;28;20054;-82
2021/05/21 10:56:06;;;;;;;11.95;2.30;;;17.60;55.90;;;16.15;53.19;99374.31;5028599;28;20041;-80
2021/05/21 10:58:44;;;;;;;8.93;1.60;;;17.70;57.10;;;16.18;51.09;99373.78;5027175;28;20057;-82
2021/05/21 11:01:29;;;;;;;12.38;2.08;;;17.70;55.40;;;16.24;51.82;99370.06;5029230;28;20046;-83
2021/05/21 11:04:32;;;;;;;7.60;1.80;;;17.70;56.40;;;16.27;51.62;99361.31;5032183;28;20045;-83